createdAt,value
2024-05-09T00:05:44.113Z,11.6
2024-05-09T00:22:15.170Z,11.5
2024-05-09T00:30:33.373Z,11.4
2024-05-09T00:38:46.854Z,11.3
2024-05-09T00:47:02.686Z,11.2
2024-05-09T00:55:18.535Z,11.2
2024-05-09T01:03:34.539Z,11.1
2024-05-09T01:11:50.380Z,11
2024-05-09T01:20:06.391Z,10.9
2024-05-09T01:28:21.960Z,10.8
2024-05-09T01:36:37.748Z,10.8
2024-05-09T01:44:53.606Z,10.7
2024-05-09T01:53:09.755Z,10.6
2024-05-09T02:01:25.281Z,10.5
2024-05-09T02:09:41.074Z,10.5
2024-05-09T02:17:57.096Z,10.5
2024-05-09T02:26:12.714Z,10.4
2024-05-09T02:34:28.496Z,10.4
2024-05-09T02:42:44.357Z,10.4
2024-05-09T02:51:00.175Z,10.4
2024-05-09T02:59:16.008Z,10.3
2024-05-09T03:07:31.725Z,10.2
2024-05-09T03:15:47.540Z,10.1
2024-05-09T03:24:03.326Z,10.1
2024-05-09T03:32:19.201Z,10.1
2024-05-09T03:40:34.970Z,10.1
2024-05-09T03:48:50.974Z,10.1
2024-05-09T03:57:06.665Z,10
2024-05-09T04:05:22.371Z,10
2024-05-09T04:13:38.145Z,10
2024-05-09T04:21:54.006Z,10
2024-05-09T04:30:12.431Z,10
2024-05-09T04:38:25.583Z,10.1
2024-05-09T04:46:41.364Z,10.1
2024-05-09T04:54:58.866Z,10.2
2024-05-09T05:03:14.593Z,10.2
2024-05-09T05:11:28.731Z,10.2
2024-05-09T05:19:44.685Z,10.3
2024-05-09T05:28:00.261Z,10.4
2024-05-09T05:36:16.064Z,10.5
2024-05-09T05:44:31.887Z,10.6
2024-05-09T05:52:47.684Z,10.7
2024-05-09T06:01:03.499Z,10.8
2024-05-09T06:09:19.292Z,10.9
2024-05-09T06:17:35.163Z,11
2024-05-09T06:25:50.982Z,11.1
2024-05-09T06:34:06.812Z,11.2
2024-05-09T06:42:22.556Z,11.4
2024-05-09T06:50:39.343Z,11.5
2024-05-09T06:58:54.367Z,11.7
2024-05-09T07:07:10.090Z,11.8
2024-05-09T07:15:25.972Z,11.9
2024-05-09T07:23:43.708Z,12.1
2024-05-09T07:31:57.709Z,12.3
2024-05-09T07:40:21.183Z,12.4
2024-05-09T07:49:13.720Z,12.6
2024-05-09T07:56:45.461Z,12.8
2024-05-09T08:05:01.368Z,13
2024-05-09T08:13:17.125Z,13.4
2024-05-09T08:21:33.045Z,13.8
2024-05-09T08:29:49.011Z,14
2024-05-09T08:38:05.003Z,14.3
2024-05-09T08:46:21.094Z,14.8
2024-05-09T08:54:36.872Z,15.2
2024-05-09T09:02:52.860Z,15.5
2024-05-09T09:11:08.828Z,16.1
2024-05-09T09:19:25.043Z,16.5
2024-05-09T09:27:41.216Z,16.6
2024-05-09T09:35:56.921Z,16.7
2024-05-09T09:44:12.968Z,16.7
2024-05-09T10:00:45.450Z,17.1
2024-05-09T10:09:02.147Z,17
2024-05-09T10:17:17.182Z,16.6
2024-05-09T10:25:33.183Z,16.4
2024-05-09T10:33:49.912Z,16.5
2024-05-09T10:42:05.221Z,16.7
2024-05-09T10:50:25.305Z,17.1
2024-05-09T10:58:37.351Z,17.5
2024-05-09T11:06:53.679Z,17.8
2024-05-09T11:15:09.490Z,18.1
2024-05-09T11:23:25.569Z,17.9
2024-05-09T11:31:41.698Z,18.1
2024-05-09T11:39:58.829Z,18.7
2024-05-09T11:48:13.954Z,19.1
2024-05-09T11:56:30.017Z,19.4
2024-05-09T12:04:47.253Z,19.7
2024-05-09T12:13:03.305Z,20.2
2024-05-09T12:21:18.560Z,20.2
2024-05-09T12:29:36.843Z,20.5
2024-05-09T12:37:50.827Z,20.5
2024-05-09T12:46:07.120Z,20.7
2024-05-09T12:54:23.155Z,21.2
2024-05-09T13:02:39.532Z,21.3
2024-05-09T13:10:55.573Z,22.2
2024-05-09T13:19:11.774Z,23.5
2024-05-09T13:27:28.001Z,25.9
2024-05-09T13:35:46.974Z,28.2
2024-05-09T13:44:00.678Z,28
2024-05-09T13:52:17.443Z,28.8
2024-05-09T14:00:41.590Z,29.1
2024-05-09T14:08:49.930Z,28.2
2024-05-09T14:17:06.367Z,28.9
2024-05-09T14:25:22.798Z,29.3
2024-05-09T14:33:39.345Z,30.1
2024-05-09T14:41:55.703Z,30.6
2024-05-09T14:50:17.064Z,31
2024-05-09T14:58:29.192Z,27
2024-05-09T15:06:45.059Z,28.7
2024-05-09T15:23:18.216Z,42.5
2024-05-09T15:31:35.121Z,43.8
2024-05-09T15:39:51.958Z,41.2
2024-05-09T15:48:10.160Z,43.4
2024-05-09T15:56:25.933Z,42
2024-05-09T16:12:59.216Z,32.7
2024-05-09T16:21:15.633Z,32
2024-05-09T16:29:33.245Z,31.3
2024-05-09T16:37:48.807Z,31.4
2024-05-09T16:46:05.400Z,31.6
2024-05-09T16:54:21.933Z,30.7
2024-05-09T17:10:55.629Z,26.4
2024-05-09T17:19:12.295Z,25.2
2024-05-09T17:27:27.707Z,25.2
2024-05-09T17:35:44.068Z,24.7
2024-05-09T17:44:00.394Z,23.6
2024-05-09T17:52:16.776Z,23.5
2024-05-09T18:00:36.704Z,23.7
2024-05-09T18:08:50.215Z,23.6
2024-05-09T18:17:05.448Z,22.6
2024-05-09T18:25:21.694Z,21.3
2024-05-09T18:33:37.995Z,20.5
2024-05-09T18:41:53.888Z,19.5
2024-05-09T18:50:14.538Z,18.8
2024-05-09T18:58:26.136Z,18.4
2024-05-09T19:06:42.109Z,17.9
2024-05-09T19:14:58.122Z,17.5
2024-05-09T19:23:14.148Z,17.1
2024-05-09T19:31:30.273Z,16.8
2024-05-09T19:39:46.155Z,16.5
2024-05-09T19:48:02.315Z,16.3
2024-05-09T19:56:18.154Z,16.2
2024-05-09T20:04:34.323Z,16
2024-05-09T20:12:51.124Z,15.9
2024-05-09T20:21:06.242Z,15.8
2024-05-09T20:29:22.074Z,15.6
2024-05-09T20:37:38.012Z,15.6
2024-05-09T20:45:54.042Z,15.5
2024-05-09T20:54:09.985Z,15.4
2024-05-09T21:02:26.155Z,15.3
2024-05-09T21:10:43.121Z,15.2
2024-05-09T21:18:57.933Z,15.2
2024-05-09T21:27:13.871Z,15.1
2024-05-09T21:35:29.871Z,15.1
2024-05-09T21:43:45.801Z,15.1
2024-05-09T21:52:01.794Z,15.1
2024-05-09T22:00:24.961Z,15
2024-05-09T22:08:33.715Z,14.9
2024-05-09T22:16:49.681Z,14.8
2024-05-09T22:25:05.721Z,14.7
2024-05-09T22:33:21.754Z,14.6
2024-05-09T22:41:37.586Z,14.5
2024-05-09T22:49:53.550Z,14.3
2024-05-09T22:58:09.624Z,14.2
2024-05-09T23:06:25.404Z,14
2024-05-09T23:14:41.344Z,13.9
2024-05-09T23:22:57.276Z,13.8
2024-05-09T23:31:13.201Z,13.6
2024-05-09T23:39:29.090Z,13.5
2024-05-09T23:47:45.188Z,13.3
2024-05-09T23:56:00.920Z,13.2
